Great Neck Estates, New York
Current Conditions -  °F | °C
As of 9:51 AM on Tuesday 21 Oct 2014 (Local Time) from KLGA Reporting Station
Scattered Clouds Scattered Clouds  
Wind Chill: 62°   Ceiling: Unl
Heat Index: 62°   Visibility: 10mi
Dew Point: 45°   Wind: 0mph
Humidity: 53%   Direction: NA
Pressure: 29.89"   Gusts: NA
Location:  40.786°N, 73.7291°W
Report Text: KLGA 211351Z 00000KT 10SM FEW070 SCT250 17/07 A2989 RMK AO2 SLP123 T01670072
Loading
Personal Weather Stations






























Interactive Weather Map New forecast layout! Learn more

10-Day Weather Forecast

Advertisements
Track Severe Weather on mobile